ZJW988 ZSZS-ZSPD
Flight info
| Callsign | ZJW988 |
|---|---|
| Flight time | 0h 36m |
| Altitude | 17700 |
| Route | HSN W67 BK W502 GOVNI |
| Aircraft | B737/M-SDE2E3FGHIRWXY/LB1 |
Departure
| Time | 2026-04-30 13:49 |
|---|---|
| Airport | Zhoushan Putuoshan International Airport (ZSZS) |
Arrival
| Time | 2026-04-30 14:26 |
|---|---|
| Airport | Shanghai Pudong International Airport (ZSPD) |
| Time | Latitude | Longitude | Altitude | Speed | Heading |
|---|---|---|---|---|---|
| 2026-04-30 13:35 | 29.93525 | 122.35891 | 12 ft | 0 kts | 264° |
| 2026-04-30 13:38 | 29.93525 | 122.35899 | 12 ft | 2 kts | 264° |
| 2026-04-30 13:38 | 29.93528 | 122.35936 | 15 ft | 2 kts | 327° |
| 2026-04-30 13:39 | 29.93525 | 122.35939 | 15 ft | 0 kts | 357° |
| 2026-04-30 13:43 | 29.93527 | 122.35939 | 15 ft | 3 kts | 357° |
| 2026-04-30 13:43 | 29.93596 | 122.35932 | 15 ft | 15 kts | 355° |
| 2026-04-30 13:44 | 29.93731 | 122.35918 | 15 ft | 24 kts | 354° |
| 2026-04-30 13:44 | 29.93817 | 122.35949 | 15 ft | 5 kts | 64° |
| 2026-04-30 13:44 | 29.93824 | 122.35989 | 17 ft | 0 kts | 63° |
| 2026-04-30 13:44 | 29.93837 | 122.36000 | 16 ft | 10 kts | 35° |
| 2026-04-30 13:45 | 29.93967 | 122.35982 | 15 ft | 12 kts | 351° |
| 2026-04-30 13:45 | 29.94063 | 122.35969 | 15 ft | 15 kts | 356° |
| 2026-04-30 13:45 | 29.94179 | 122.35962 | 15 ft | 18 kts | 357° |
| 2026-04-30 13:46 | 29.94315 | 122.35954 | 15 ft | 21 kts | 356° |
| 2026-04-30 13:46 | 29.94468 | 122.35940 | 15 ft | 17 kts | 0° |
| 2026-04-30 13:46 | 29.94522 | 122.36005 | 15 ft | 1 kts | 82° |
| 2026-04-30 13:47 | 29.94520 | 122.36073 | 15 ft | 25 kts | 106° |
| 2026-04-30 13:48 | 29.94422 | 122.36126 | 16 ft | 36 kts | 179° |
| 2026-04-30 13:48 | 29.93770 | 122.36183 | 16 ft | 147 kts | 175° |
| 2026-04-30 13:48 | 29.93318 | 122.36236 | 95 ft | 174 kts | 174° |
| 2026-04-30 13:49 | 29.92617 | 122.36326 | 799 ft | 172 kts | 173° |
| 2026-04-30 13:50 | 29.91496 | 122.36440 | 2419 ft | 160 kts | 188° |
| 2026-04-30 13:50 | 29.89833 | 122.34479 | 3620 ft | 202 kts | 272° |
| 2026-04-30 13:50 | 29.90090 | 122.32839 | 4367 ft | 219 kts | 287° |
| 2026-04-30 13:51 | 29.90467 | 122.31032 | 5096 ft | 243 kts | 286° |
| 2026-04-30 13:51 | 29.90846 | 122.29099 | 5784 ft | 249 kts | 285° |
| 2026-04-30 13:51 | 29.91213 | 122.27144 | 6487 ft | 250 kts | 285° |
| 2026-04-30 13:51 | 29.91574 | 122.25183 | 7136 ft | 250 kts | 284° |
| 2026-04-30 13:52 | 29.91926 | 122.23250 | 7790 ft | 250 kts | 284° |
| 2026-04-30 13:52 | 29.92283 | 122.21287 | 8458 ft | 249 kts | 284° |
| 2026-04-30 13:52 | 29.92624 | 122.19328 | 9142 ft | 250 kts | 281° |
| 2026-04-30 13:52 | 29.92666 | 122.17314 | 9845 ft | 253 kts | 271° |
| 2026-04-30 13:53 | 29.92550 | 122.15283 | 10507 ft | 254 kts | 270° |
| 2026-04-30 13:53 | 29.92414 | 122.13244 | 11156 ft | 256 kts | 270° |
| 2026-04-30 13:53 | 29.92282 | 122.11187 | 11819 ft | 258 kts | 270° |
| 2026-04-30 13:53 | 29.92159 | 122.09122 | 12498 ft | 259 kts | 270° |
| 2026-04-30 13:54 | 29.92043 | 122.07048 | 13187 ft | 260 kts | 271° |
| 2026-04-30 13:54 | 29.91931 | 122.04966 | 13898 ft | 260 kts | 271° |
| 2026-04-30 13:54 | 29.91819 | 122.02877 | 14524 ft | 261 kts | 271° |
| 2026-04-30 13:54 | 29.91711 | 122.00832 | 15158 ft | 261 kts | 270° |
| 2026-04-30 13:55 | 29.91616 | 121.98739 | 15814 ft | 261 kts | 271° |
| 2026-04-30 13:55 | 29.91552 | 121.96647 | 16478 ft | 260 kts | 271° |
| 2026-04-30 13:55 | 29.91496 | 121.94561 | 17166 ft | 261 kts | 271° |
| 2026-04-30 13:55 | 29.91459 | 121.93141 | 17564 ft | 271 kts | 271° |
| 2026-04-30 13:56 | 29.91401 | 121.90849 | 17679 ft | 301 kts | 271° |
| 2026-04-30 13:56 | 29.91335 | 121.88342 | 17717 ft | 325 kts | 271° |
| 2026-04-30 13:56 | 29.91261 | 121.85654 | 17728 ft | 346 kts | 270° |
| 2026-04-30 13:56 | 29.91180 | 121.82816 | 17727 ft | 364 kts | 270° |
| 2026-04-30 13:57 | 29.91091 | 121.79858 | 17708 ft | 370 kts | 270° |
| 2026-04-30 13:57 | 29.91000 | 121.76879 | 17701 ft | 373 kts | 270° |
| 2026-04-30 13:57 | 29.90907 | 121.73895 | 17702 ft | 373 kts | 270° |
| 2026-04-30 13:57 | 29.90815 | 121.70900 | 17694 ft | 374 kts | 270° |
| 2026-04-30 13:58 | 29.90722 | 121.67918 | 17801 ft | 372 kts | 270° |
| 2026-04-30 13:58 | 29.90538 | 121.61926 | 17826 ft | 374 kts | 270° |
| 2026-04-30 13:58 | 29.90445 | 121.58928 | 17823 ft | 374 kts | 270° |
| 2026-04-30 13:59 | 29.90351 | 121.55934 | 17827 ft | 374 kts | 270° |
| 2026-04-30 13:59 | 29.90257 | 121.52943 | 17829 ft | 373 kts | 271° |
| 2026-04-30 13:59 | 29.90511 | 121.49985 | 17829 ft | 371 kts | 285° |
| 2026-04-30 13:59 | 29.91528 | 121.47260 | 17836 ft | 373 kts | 299° |
| 2026-04-30 14:00 | 29.93130 | 121.44894 | 17838 ft | 378 kts | 311° |
| 2026-04-30 14:00 | 29.97677 | 121.41824 | 17825 ft | 396 kts | 339° |
| 2026-04-30 14:00 | 30.00452 | 121.41475 | 17834 ft | 410 kts | 355° |
| 2026-04-30 14:01 | 30.03310 | 121.42046 | 17823 ft | 426 kts | 11° |
| 2026-04-30 14:01 | 30.06031 | 121.43524 | 17850 ft | 435 kts | 20° |
| 2026-04-30 14:01 | 30.08680 | 121.45214 | 17835 ft | 436 kts | 21° |
| 2026-04-30 14:01 | 30.11329 | 121.46938 | 17834 ft | 436 kts | 21° |
| 2026-04-30 14:02 | 30.13976 | 121.48651 | 17824 ft | 436 kts | 21° |
| 2026-04-30 14:02 | 30.16623 | 121.50342 | 17820 ft | 435 kts | 21° |
| 2026-04-30 14:02 | 30.19286 | 121.52026 | 17823 ft | 435 kts | 21° |
| 2026-04-30 14:02 | 30.21939 | 121.53696 | 17821 ft | 434 kts | 21° |
| 2026-04-30 14:03 | 30.24598 | 121.55369 | 17823 ft | 434 kts | 21° |
| 2026-04-30 14:03 | 30.27246 | 121.57051 | 17819 ft | 435 kts | 21° |
| 2026-04-30 14:03 | 30.29890 | 121.58763 | 17818 ft | 435 kts | 21° |
| 2026-04-30 14:03 | 30.32424 | 121.60411 | 17819 ft | 435 kts | 21° |
| 2026-04-30 14:04 | 30.35150 | 121.62181 | 17822 ft | 435 kts | 21° |
| 2026-04-30 14:04 | 30.37789 | 121.63904 | 17819 ft | 436 kts | 22° |
| 2026-04-30 14:04 | 30.40399 | 121.65703 | 17823 ft | 437 kts | 23° |
| 2026-04-30 14:04 | 30.42999 | 121.67550 | 17823 ft | 438 kts | 24° |
| 2026-04-30 14:05 | 30.45563 | 121.69381 | 17823 ft | 438 kts | 24° |
| 2026-04-30 14:05 | 30.48066 | 121.71162 | 17828 ft | 438 kts | 23° |
| 2026-04-30 14:05 | 30.50723 | 121.73039 | 17828 ft | 438 kts | 23° |
| 2026-04-30 14:05 | 30.53325 | 121.74872 | 17834 ft | 438 kts | 23° |
| 2026-04-30 14:06 | 30.55933 | 121.76704 | 17832 ft | 437 kts | 22° |
| 2026-04-30 14:06 | 30.61485 | 121.78802 | 17829 ft | 416 kts | 3° |
| 2026-04-30 14:07 | 30.67151 | 121.80244 | 17317 ft | 415 kts | 5° |
| 2026-04-30 14:07 | 30.69936 | 121.80994 | 16887 ft | 408 kts | 5° |
| 2026-04-30 14:07 | 30.72682 | 121.81744 | 16465 ft | 403 kts | 5° |
| 2026-04-30 14:08 | 30.78068 | 121.83214 | 15631 ft | 396 kts | 5° |
| 2026-04-30 14:08 | 30.80745 | 121.83944 | 15225 ft | 393 kts | 6° |
| 2026-04-30 14:08 | 30.85925 | 121.85356 | 14439 ft | 387 kts | 6° |
| 2026-04-30 14:09 | 30.88533 | 121.86068 | 14043 ft | 383 kts | 6° |
| 2026-04-30 14:09 | 30.91120 | 121.86774 | 13604 ft | 380 kts | 7° |
| 2026-04-30 14:09 | 30.96032 | 121.89160 | 11907 ft | 379 kts | 26° |
| 2026-04-30 14:10 | 30.98221 | 121.90746 | 11088 ft | 362 kts | 25° |
| 2026-04-30 14:10 | 31.00287 | 121.92205 | 10273 ft | 332 kts | 25° |
| 2026-04-30 14:10 | 31.02192 | 121.93525 | 9444 ft | 306 kts | 25° |
| 2026-04-30 14:10 | 31.03971 | 121.94744 | 8593 ft | 288 kts | 25° |
| 2026-04-30 14:11 | 31.05654 | 121.95894 | 7949 ft | 276 kts | 26° |
| 2026-04-30 14:11 | 31.07294 | 121.97032 | 7335 ft | 273 kts | 30° |
| 2026-04-30 14:11 | 31.08708 | 121.98526 | 6731 ft | 271 kts | 37° |
| 2026-04-30 14:11 | 31.10345 | 121.99466 | 6052 ft | 261 kts | 6° |
| 2026-04-30 14:12 | 31.12102 | 121.99167 | 5404 ft | 257 kts | 337° |
| 2026-04-30 14:12 | 31.13691 | 121.98266 | 5002 ft | 252 kts | 334° |
| 2026-04-30 14:12 | 31.15269 | 121.97374 | 4568 ft | 252 kts | 334° |
| 2026-04-30 14:12 | 31.16328 | 121.96803 | 4279 ft | 253 kts | 335° |
| 2026-04-30 14:13 | 31.18498 | 121.95693 | 3697 ft | 255 kts | 336° |
| 2026-04-30 14:13 | 31.20140 | 121.94892 | 3281 ft | 256 kts | 336° |
| 2026-04-30 14:13 | 31.21753 | 121.94126 | 3108 ft | 250 kts | 336° |
| 2026-04-30 14:13 | 31.23335 | 121.93391 | 3008 ft | 239 kts | 337° |
| 2026-04-30 14:14 | 31.24852 | 121.92694 | 3009 ft | 231 kts | 337° |
| 2026-04-30 14:14 | 31.26345 | 121.92013 | 3003 ft | 230 kts | 337° |
| 2026-04-30 14:14 | 31.27844 | 121.91332 | 3009 ft | 233 kts | 337° |
| 2026-04-30 14:14 | 31.29375 | 121.90640 | 2999 ft | 236 kts | 337° |
| 2026-04-30 14:15 | 31.30929 | 121.89943 | 2672 ft | 241 kts | 337° |
| 2026-04-30 14:15 | 31.32483 | 121.89246 | 2343 ft | 236 kts | 337° |
| 2026-04-30 14:15 | 31.34006 | 121.88562 | 2057 ft | 234 kts | 337° |
| 2026-04-30 14:15 | 31.35524 | 121.87880 | 2023 ft | 234 kts | 337° |
| 2026-04-30 14:16 | 31.37039 | 121.87199 | 2010 ft | 233 kts | 337° |
| 2026-04-30 14:16 | 31.38557 | 121.86515 | 1995 ft | 234 kts | 337° |
| 2026-04-30 14:16 | 31.40074 | 121.85832 | 2000 ft | 233 kts | 337° |
| 2026-04-30 14:16 | 31.41579 | 121.85155 | 1998 ft | 232 kts | 337° |
| 2026-04-30 14:17 | 31.43080 | 121.84438 | 1987 ft | 231 kts | 329° |
| 2026-04-30 14:17 | 31.44191 | 121.83160 | 1996 ft | 226 kts | 296° |
| 2026-04-30 14:17 | 31.44511 | 121.81416 | 1995 ft | 214 kts | 268° |
| 2026-04-30 14:17 | 31.44318 | 121.79776 | 1979 ft | 194 kts | 258° |
| 2026-04-30 14:18 | 31.44036 | 121.78302 | 1963 ft | 180 kts | 257° |
| 2026-04-30 14:18 | 31.43761 | 121.76894 | 1973 ft | 175 kts | 257° |
| 2026-04-30 14:18 | 31.43225 | 121.74107 | 1992 ft | 176 kts | 257° |
| 2026-04-30 14:19 | 31.41694 | 121.72135 | 1998 ft | 181 kts | 188° |
| 2026-04-30 14:19 | 31.40434 | 121.72395 | 2026 ft | 189 kts | 163° |
| 2026-04-30 14:19 | 31.39174 | 121.72874 | 1995 ft | 190 kts | 165° |
| 2026-04-30 14:20 | 31.37944 | 121.73328 | 2006 ft | 187 kts | 165° |
| 2026-04-30 14:20 | 31.36691 | 121.73794 | 1988 ft | 186 kts | 165° |
| 2026-04-30 14:20 | 31.34249 | 121.74710 | 2001 ft | 185 kts | 165° |
| 2026-04-30 14:21 | 31.33025 | 121.75171 | 1996 ft | 185 kts | 164° |
| 2026-04-30 14:21 | 31.31802 | 121.75634 | 2000 ft | 184 kts | 164° |
| 2026-04-30 14:21 | 31.29361 | 121.76558 | 2012 ft | 185 kts | 164° |
| 2026-04-30 14:22 | 31.28143 | 121.77020 | 2028 ft | 184 kts | 164° |
| 2026-04-30 14:22 | 31.25679 | 121.77954 | 2004 ft | 182 kts | 164° |
| 2026-04-30 14:22 | 31.24514 | 121.78396 | 1811 ft | 170 kts | 164° |
| 2026-04-30 14:23 | 31.22378 | 121.79206 | 1378 ft | 157 kts | 164° |
| 2026-04-30 14:23 | 31.20329 | 121.79982 | 952 ft | 152 kts | 164° |
| 2026-04-30 14:24 | 31.18359 | 121.80728 | 532 ft | 142 kts | 164° |
| 2026-04-30 14:24 | 31.17743 | 121.80951 | 425 ft | 138 kts | 163° |
| 2026-04-30 14:25 | 31.15906 | 121.81669 | 53 ft | 132 kts | 162° |
| 2026-04-30 14:25 | 31.14581 | 121.82169 | 21 ft | 67 kts | 169° |
| 2026-04-30 14:26 | 31.14252 | 121.82151 | 24 ft | 0 kts | 205° |
| 2026-04-30 14:26 | 31.14322 | 121.82052 | 22 ft | 19 kts | 341° |
| 2026-04-30 14:27 | 31.14454 | 121.81999 | 21 ft | 21 kts | 341° |
| 2026-04-30 14:27 | 31.14605 | 121.81941 | 21 ft | 24 kts | 345° |
| 2026-04-30 14:27 | 31.14756 | 121.81885 | 22 ft | 23 kts | 342° |
| 2026-04-30 14:28 | 31.15050 | 121.81774 | 21 ft | 22 kts | 343° |
| 2026-04-30 14:28 | 31.15192 | 121.81723 | 22 ft | 21 kts | 339° |
| 2026-04-30 14:28 | 31.15310 | 121.81627 | 24 ft | 20 kts | 319° |
| 2026-04-30 14:28 | 31.15437 | 121.81563 | 22 ft | 20 kts | 344° |
| 2026-04-30 14:29 | 31.15499 | 121.81458 | 22 ft | 4 kts | 252° |
| 2026-04-30 14:29 | 31.15467 | 121.81345 | 21 ft | 15 kts | 252° |
| 2026-04-30 14:30 | 31.15367 | 121.80985 | 22 ft | 15 kts | 251° |
| 2026-04-30 14:31 | 31.15420 | 121.80812 | 23 ft | 14 kts | 335° |
| 2026-04-30 14:31 | 31.15439 | 121.80774 | 22 ft | 7 kts | 268° |
| 2026-04-30 14:31 | 31.15419 | 121.80723 | 22 ft | 2 kts | 251° |
| 2026-04-30 14:32 | 31.15413 | 121.80697 | 22 ft | 0 kts | 254° |